createdAt,value
2023-05-15T00:00:33.802Z,27.58
2023-05-15T00:01:33.831Z,27.58
2023-05-15T00:02:33.960Z,27.61
2023-05-15T00:03:34.117Z,27.58
2023-05-15T00:04:33.910Z,27.61
2023-05-15T00:05:33.877Z,27.58
2023-05-15T00:06:33.890Z,27.60
2023-05-15T00:07:33.887Z,27.60
2023-05-15T00:08:33.919Z,27.58
2023-05-15T00:09:33.956Z,27.60
2023-05-15T00:10:33.926Z,27.58
2023-05-15T00:11:33.964Z,27.58
2023-05-15T00:12:33.980Z,27.57
2023-05-15T00:13:33.951Z,27.57
2023-05-15T00:14:34.007Z,27.57
2023-05-15T00:15:34.041Z,27.57
2023-05-15T00:16:34.165Z,27.54
2023-05-15T00:17:34.124Z,27.54
2023-05-15T00:18:34.122Z,27.53
2023-05-15T00:19:34.094Z,27.54
2023-05-15T00:20:34.135Z,27.50
2023-05-15T00:21:34.149Z,27.51
2023-05-15T00:22:34.145Z,27.51
2023-05-15T00:23:34.182Z,27.51
2023-05-15T00:24:34.186Z,27.49
2023-05-15T00:25:34.218Z,27.51
2023-05-15T00:26:34.271Z,27.49
2023-05-15T00:27:34.271Z,27.47
2023-05-15T00:28:34.307Z,27.47
2023-05-15T00:29:34.343Z,27.47
2023-05-15T00:30:34.394Z,27.46
2023-05-15T00:31:34.465Z,27.44
2023-05-15T00:32:34.486Z,27.46
2023-05-15T00:33:34.532Z,27.41
2023-05-15T00:34:34.483Z,27.44
2023-05-15T00:35:34.561Z,27.44
2023-05-15T00:36:34.715Z,27.44
2023-05-15T00:37:34.592Z,27.44
2023-05-15T00:38:34.616Z,27.43
2023-05-15T00:39:34.685Z,27.44
2023-05-15T00:40:34.673Z,27.44
2023-05-15T00:41:34.708Z,27.44
2023-05-15T00:42:34.763Z,27.43
2023-05-15T00:43:34.781Z,27.43
2023-05-15T00:44:34.794Z,27.46
2023-05-15T00:45:34.835Z,27.46
2023-05-15T00:46:34.896Z,27.46
2023-05-15T00:47:34.924Z,27.46
2023-05-15T00:48:34.934Z,27.47
2023-05-15T00:49:34.940Z,27.47
2023-05-15T00:50:34.974Z,27.43
2023-05-15T00:51:35.022Z,27.49
2023-05-15T00:52:35.040Z,27.44
2023-05-15T00:53:35.097Z,27.49
2023-05-15T00:54:35.067Z,27.46
2023-05-15T00:55:35.103Z,27.47
2023-05-15T00:56:35.109Z,27.46
2023-05-15T00:57:35.153Z,27.47
2023-05-15T00:58:35.210Z,27.46
2023-05-15T00:59:35.213Z,27.47
2023-05-15T01:00:35.278Z,27.46
2023-05-15T01:01:35.327Z,27.47
2023-05-15T01:02:35.335Z,27.44
2023-05-15T01:03:35.376Z,27.44
2023-05-15T01:04:35.356Z,27.44
2023-05-15T01:05:35.408Z,27.43
2023-05-15T01:06:35.459Z,27.44
2023-05-15T01:07:35.521Z,27.41
2023-05-15T01:08:35.488Z,27.43
2023-05-15T01:09:35.506Z,27.41
2023-05-15T01:10:35.573Z,27.46
2023-05-15T01:11:35.585Z,27.44
2023-05-15T01:12:35.640Z,27.43
2023-05-15T01:13:35.675Z,27.41
2023-05-15T01:14:35.673Z,27.43
2023-05-15T01:15:35.716Z,27.41
2023-05-15T01:16:35.747Z,27.43
2023-05-15T01:17:35.802Z,27.41
2023-05-15T01:18:35.833Z,27.41
2023-05-15T01:19:35.918Z,27.43
2023-05-15T01:20:35.824Z,27.41
2023-05-15T01:21:35.837Z,27.43
2023-05-15T01:22:35.866Z,27.44
2023-05-15T01:23:35.880Z,27.40
2023-05-15T01:24:35.916Z,27.41
2023-05-15T01:25:35.943Z,27.41
2023-05-15T01:26:36.018Z,27.39
2023-05-15T01:27:36.022Z,27.43
2023-05-15T01:28:36.023Z,27.39
2023-05-15T01:29:36.075Z,27.40
2023-05-15T01:30:36.102Z,27.40
2023-05-15T01:31:36.172Z,27.39
2023-05-15T01:32:36.192Z,27.37
2023-05-15T01:33:36.213Z,27.37
2023-05-15T01:34:36.196Z,27.36
2023-05-15T01:35:36.229Z,27.37
2023-05-15T01:36:36.288Z,27.34
2023-05-15T01:37:36.338Z,27.34
2023-05-15T01:38:36.397Z,27.32
2023-05-15T01:39:36.404Z,27.32
2023-05-15T01:40:36.438Z,27.32
2023-05-15T01:41:36.477Z,27.30
2023-05-15T01:42:36.541Z,27.30
2023-05-15T01:43:36.575Z,27.29
2023-05-15T01:44:36.613Z,27.29
2023-05-15T01:45:36.646Z,27.32
2023-05-15T01:46:36.752Z,27.30
2023-05-15T01:47:36.786Z,27.30
2023-05-15T01:48:36.772Z,27.30
2023-05-15T01:49:36.810Z,27.32
2023-05-15T01:50:36.841Z,27.29
2023-05-15T01:51:36.886Z,27.30
2023-05-15T01:52:36.958Z,27.32
2023-05-15T01:53:36.967Z,27.33
2023-05-15T01:54:37.007Z,27.30
2023-05-15T01:55:37.029Z,27.33
2023-05-15T01:56:37.069Z,27.30
2023-05-15T01:57:37.134Z,27.32
2023-05-15T01:58:37.148Z,27.29
2023-05-15T01:59:37.187Z,27.28
2023-05-15T02:00:37.250Z,27.32
2023-05-15T02:01:37.357Z,27.30
2023-05-15T02:02:37.384Z,27.29
2023-05-15T02:03:37.430Z,27.30
2023-05-15T02:04:37.426Z,27.28
2023-05-15T02:05:37.451Z,27.32
2023-05-15T02:06:37.496Z,27.26
2023-05-15T02:07:37.552Z,27.28
2023-05-15T02:08:37.627Z,27.30
2023-05-15T02:09:37.671Z,27.28
2023-05-15T02:10:37.710Z,27.29
2023-05-15T02:11:37.759Z,27.28
2023-05-15T02:12:37.791Z,27.26
2023-05-15T02:13:37.848Z,27.26
2023-05-15T02:14:37.899Z,27.26
2023-05-15T02:15:37.946Z,27.26
2023-05-15T02:16:38.020Z,27.29
2023-05-15T02:17:38.026Z,27.28
2023-05-15T02:18:38.173Z,27.28
2023-05-15T02:19:38.095Z,27.28
2023-05-15T02:20:38.141Z,27.29
2023-05-15T02:21:38.185Z,27.29
2023-05-15T02:22:38.229Z,27.26
2023-05-15T02:23:38.264Z,27.30
2023-05-15T02:24:38.311Z,27.30
2023-05-15T02:25:38.351Z,27.32
2023-05-15T02:26:38.378Z,27.30
2023-05-15T02:27:38.421Z,27.32
2023-05-15T02:28:38.469Z,27.32
2023-05-15T02:29:38.483Z,27.33
2023-05-15T02:30:38.556Z,27.32
2023-05-15T02:31:38.610Z,27.30
2023-05-15T02:32:38.682Z,27.32
2023-05-15T02:33:38.682Z,27.30
2023-05-15T02:34:38.722Z,27.28
2023-05-15T02:35:38.747Z,27.29
2023-05-15T02:36:38.842Z,27.29
2023-05-15T02:37:38.839Z,27.29
2023-05-15T02:38:38.922Z,27.29
2023-05-15T02:39:38.920Z,27.32
2023-05-15T02:40:38.975Z,27.29
2023-05-15T02:41:39.039Z,27.28
2023-05-15T02:42:39.049Z,27.26
2023-05-15T02:43:39.104Z,27.29
2023-05-15T02:44:39.128Z,27.28
2023-05-15T02:45:39.292Z,27.26
2023-05-15T02:46:39.259Z,27.29
2023-05-15T02:47:39.321Z,27.26
2023-05-15T02:48:39.327Z,27.25
2023-05-15T02:49:39.377Z,27.26
2023-05-15T02:50:39.415Z,27.26
2023-05-15T02:51:39.449Z,27.26
2023-05-15T02:52:39.519Z,27.28
2023-05-15T02:53:39.557Z,27.23
2023-05-15T02:54:39.595Z,27.25
2023-05-15T02:55:39.664Z,27.22
2023-05-15T02:56:39.727Z,27.17
2023-05-15T02:57:39.777Z,27.19
2023-05-15T02:58:39.801Z,27.17
2023-05-15T02:59:40.074Z,27.15
2023-05-15T03:00:40.466Z,27.12
2023-05-15T03:01:40.024Z,27.12
2023-05-15T03:02:40.188Z,27.09
2023-05-15T03:03:40.098Z,27.09
2023-05-15T03:04:40.194Z,27.09
2023-05-15T03:05:40.230Z,27.06
2023-05-15T03:06:40.314Z,27.05
2023-05-15T03:07:40.383Z,27.06
2023-05-15T03:08:40.455Z,27.06
2023-05-15T03:09:40.490Z,27.07
2023-05-15T03:10:40.571Z,27.06
2023-05-15T03:11:40.609Z,27.07
2023-05-15T03:12:40.676Z,27.09
2023-05-15T03:13:40.714Z,27.07
2023-05-15T03:14:40.792Z,27.09
2023-05-15T03:15:40.842Z,27.07
2023-05-15T03:16:40.914Z,27.10
2023-05-15T03:17:40.996Z,27.10
2023-05-15T03:18:41.073Z,27.10
2023-05-15T03:19:41.079Z,27.10
2023-05-15T03:20:41.106Z,27.09
2023-05-15T03:21:41.146Z,27.13
2023-05-15T03:22:41.211Z,27.12
2023-05-15T03:23:41.272Z,27.15
2023-05-15T03:24:41.313Z,27.15
2023-05-15T03:25:41.383Z,27.12
2023-05-15T03:26:41.428Z,27.15
2023-05-15T03:27:41.487Z,27.16
2023-05-15T03:28:42.351Z,27.17
2023-05-15T03:29:41.573Z,27.15
2023-05-15T03:30:41.590Z,27.17
2023-05-15T03:31:41.705Z,27.17
2023-05-15T03:32:41.724Z,27.17
2023-05-15T03:33:41.745Z,27.21
2023-05-15T03:34:41.816Z,27.16
2023-05-15T03:35:41.856Z,27.19
2023-05-15T03:36:41.925Z,27.21
2023-05-15T03:37:41.938Z,27.19
2023-05-15T03:38:41.995Z,27.22
2023-05-15T03:39:42.010Z,27.19
2023-05-15T03:40:42.081Z,27.19
2023-05-15T03:41:42.092Z,27.17
2023-05-15T03:42:42.157Z,27.21
2023-05-15T03:43:42.228Z,27.17
2023-05-15T03:44:42.262Z,27.21
2023-05-15T03:45:42.344Z,27.21
2023-05-15T03:46:42.424Z,27.19
2023-05-15T03:47:42.410Z,27.21
2023-05-15T03:48:42.480Z,27.21
2023-05-15T03:49:42.505Z,27.21
2023-05-15T03:50:42.553Z,27.21
2023-05-15T03:51:42.632Z,27.19
2023-05-15T03:52:42.646Z,27.21
2023-05-15T03:53:42.695Z,27.21
2023-05-15T03:54:42.759Z,27.22
2023-05-15T03:55:42.823Z,27.17
2023-05-15T03:56:42.874Z,27.22
2023-05-15T03:57:42.895Z,27.21
2023-05-15T03:58:42.916Z,27.22
2023-05-15T03:59:42.998Z,27.19
2023-05-15T04:00:42.988Z,27.19
2023-05-15T04:01:59.274Z,27.19
2023-05-15T04:02:44.129Z,27.17
2023-05-15T04:03:43.197Z,27.19
2023-05-15T04:04:43.040Z,27.21
2023-05-15T04:05:43.075Z,27.17
2023-05-15T04:06:43.024Z,27.19
2023-05-15T04:07:43.048Z,27.21
2023-05-15T04:08:43.050Z,27.22
2023-05-15T04:09:43.022Z,27.23
2023-05-15T04:10:43.032Z,27.21
2023-05-15T04:11:43.056Z,27.23
2023-05-15T04:12:43.136Z,27.23
2023-05-15T04:13:43.192Z,27.19
2023-05-15T04:14:43.257Z,27.21
2023-05-15T04:15:43.291Z,27.22
2023-05-15T04:16:43.363Z,27.16
2023-05-15T04:17:43.302Z,27.16
2023-05-15T04:18:43.295Z,27.15
2023-05-15T04:19:43.251Z,27.09
2023-05-15T04:20:43.259Z,27.12
2023-05-15T04:21:43.245Z,27.09
2023-05-15T04:22:43.258Z,27.06
2023-05-15T04:23:43.253Z,27.07
2023-05-15T04:24:43.281Z,27.07
2023-05-15T04:25:43.296Z,27.03
2023-05-15T04:26:43.416Z,27.01
2023-05-15T04:27:43.294Z,26.99
2023-05-15T04:28:52.272Z,26.96
2023-05-15T04:29:44.294Z,26.98
2023-05-15T04:30:43.303Z,26.96
2023-05-15T04:31:43.368Z,26.98
2023-05-15T04:32:43.353Z,27.01
2023-05-15T04:33:43.277Z,26.98
2023-05-15T04:34:43.284Z,26.96
2023-05-15T04:35:43.275Z,26.96
2023-05-15T04:36:43.246Z,26.95
2023-05-15T04:37:43.269Z,26.94
2023-05-15T04:38:43.257Z,26.99
2023-05-15T04:39:43.211Z,26.98
2023-05-15T04:40:43.223Z,26.96
2023-05-15T04:41:43.238Z,26.96
2023-05-15T04:42:43.221Z,26.96
2023-05-15T04:43:43.249Z,26.98
2023-05-15T04:44:43.192Z,26.98
2023-05-15T04:45:43.268Z,27.01
2023-05-15T04:46:43.304Z,27.01
2023-05-15T04:47:43.410Z,26.99
2023-05-15T04:48:43.422Z,27.02
2023-05-15T04:49:43.489Z,27.05
2023-05-15T04:50:43.558Z,27.03
2023-05-15T04:51:43.607Z,27.02
2023-05-15T04:52:43.679Z,27.01
2023-05-15T04:53:43.760Z,27.02
2023-05-15T04:54:43.788Z,27.01
2023-05-15T04:55:43.875Z,27.03
2023-05-15T04:56:43.904Z,27.02
2023-05-15T04:57:43.960Z,27.05
2023-05-15T04:58:44.033Z,27.02
2023-05-15T04:59:44.112Z,27.05
2023-05-15T05:00:44.172Z,27.05
2023-05-15T05:01:44.261Z,27.03
2023-05-15T05:02:44.313Z,27.05
2023-05-15T05:03:44.401Z,27.02
2023-05-15T05:04:44.410Z,27.01
2023-05-15T05:05:44.461Z,27.01
2023-05-15T05:06:44.539Z,26.98
2023-05-15T05:07:44.529Z,26.95
2023-05-15T05:08:44.555Z,26.94
2023-05-15T05:09:44.542Z,26.91
2023-05-15T05:10:44.557Z,26.91
2023-05-15T05:11:44.569Z,26.86
2023-05-15T05:12:44.545Z,26.84
2023-05-15T05:13:44.544Z,26.84
2023-05-15T05:14:44.560Z,26.81
2023-05-15T05:15:44.664Z,26.84
2023-05-15T05:16:44.587Z,26.81
2023-05-15T05:17:44.597Z,26.82
2023-05-15T05:18:44.598Z,26.81
2023-05-15T05:19:44.627Z,26.77
2023-05-15T05:20:44.621Z,26.75
2023-05-15T05:21:44.691Z,26.71
2023-05-15T05:22:44.684Z,26.70
2023-05-15T05:23:44.686Z,26.64
2023-05-15T05:24:44.756Z,26.65
2023-05-15T05:25:44.769Z,26.65
2023-05-15T05:26:44.743Z,26.61
2023-05-15T05:27:44.831Z,26.68
2023-05-15T05:28:44.806Z,26.65
2023-05-15T05:29:44.838Z,26.68
2023-05-15T05:30:44.812Z,26.67
2023-05-15T05:31:44.843Z,26.70
2023-05-15T05:32:44.860Z,26.71
2023-05-15T05:33:44.821Z,26.71
2023-05-15T05:34:44.940Z,26.70
2023-05-15T05:35:44.928Z,26.68
2023-05-15T05:36:44.839Z,26.68
2023-05-15T05:37:44.840Z,26.70
2023-05-15T05:38:44.840Z,26.70
2023-05-15T05:39:44.867Z,26.65
2023-05-15T05:40:44.928Z,26.68
2023-05-15T05:41:44.942Z,26.70
2023-05-15T05:42:44.924Z,26.67
2023-05-15T05:43:45.438Z,26.67
2023-05-15T05:44:44.946Z,26.71
2023-05-15T05:45:44.993Z,26.74
2023-05-15T05:46:45.037Z,26.62
2023-05-15T05:47:45.030Z,26.68
2023-05-15T05:48:45.127Z,26.68
2023-05-15T05:49:45.052Z,26.68
2023-05-15T05:50:45.098Z,26.68
2023-05-15T05:51:45.107Z,26.71
2023-05-15T05:52:45.186Z,26.67
2023-05-15T05:53:45.196Z,26.71
2023-05-15T05:54:45.243Z,26.75
2023-05-15T05:55:45.238Z,26.75
2023-05-15T05:56:45.459Z,26.84
2023-05-15T05:57:45.332Z,26.86
2023-05-15T05:58:45.312Z,26.88
2023-05-15T05:59:45.342Z,26.92
2023-05-15T06:00:45.375Z,26.92
2023-05-15T06:01:45.488Z,26.96
2023-05-15T06:02:45.469Z,26.96
2023-05-15T06:03:45.560Z,27.02
2023-05-15T06:04:45.380Z,27.03
2023-05-15T06:05:45.415Z,27.05
2023-05-15T06:06:45.448Z,27.07
2023-05-15T06:07:45.408Z,27.12
2023-05-15T06:08:45.381Z,27.13
2023-05-15T06:09:45.417Z,27.15
2023-05-15T06:10:45.446Z,27.17
2023-05-15T06:11:45.488Z,27.16
2023-05-15T06:12:45.450Z,27.21
2023-05-15T06:13:45.496Z,27.19
2023-05-15T06:14:45.561Z,27.23
2023-05-15T06:15:45.692Z,27.22
2023-05-15T06:16:45.982Z,27.25
2023-05-15T06:17:45.743Z,27.29
2023-05-15T06:18:45.832Z,27.30
2023-05-15T06:19:45.839Z,27.32
2023-05-15T06:20:45.930Z,27.34
2023-05-15T06:21:46.466Z,27.33
2023-05-15T06:22:46.471Z,27.32
2023-05-15T06:23:46.070Z,27.34
2023-05-15T06:24:46.516Z,27.39
2023-05-15T06:25:46.195Z,27.40
2023-05-15T06:26:46.249Z,27.40
2023-05-15T06:27:46.567Z,27.43
2023-05-15T06:28:46.371Z,27.44
2023-05-15T06:29:46.468Z,27.49
2023-05-15T06:30:46.993Z,27.51
2023-05-15T06:31:46.946Z,27.54
2023-05-15T06:32:46.972Z,27.57
2023-05-15T06:33:46.651Z,27.58
2023-05-15T06:34:46.653Z,27.60
2023-05-15T06:35:46.726Z,27.58
2023-05-15T06:36:46.787Z,27.60
2023-05-15T06:37:46.971Z,27.60
2023-05-15T06:38:46.995Z,27.61
2023-05-15T06:39:46.919Z,27.62
2023-05-15T06:40:46.882Z,27.65
2023-05-15T06:41:46.919Z,27.62
2023-05-15T06:42:46.938Z,27.60
2023-05-15T06:43:47.484Z,27.61
2023-05-15T06:44:47.046Z,27.62
2023-05-15T06:45:47.043Z,27.64
2023-05-15T06:46:47.197Z,27.65
2023-05-15T06:47:47.142Z,27.67
2023-05-15T06:48:47.478Z,27.68
2023-05-15T06:49:47.136Z,27.68
2023-05-15T06:50:47.164Z,27.70
2023-05-15T06:51:47.186Z,27.72
2023-05-15T06:52:47.209Z,27.74
2023-05-15T06:53:47.239Z,27.74
2023-05-15T06:54:47.228Z,27.75
2023-05-15T06:55:47.246Z,27.78
2023-05-15T06:56:47.254Z,27.81
2023-05-15T06:57:47.256Z,27.83
2023-05-15T06:58:47.489Z,27.84
2023-05-15T06:59:47.390Z,27.87
2023-05-15T07:00:47.318Z,27.85
2023-05-15T07:01:47.564Z,27.89
2023-05-15T07:02:47.538Z,27.91
2023-05-15T07:03:47.322Z,27.91
2023-05-15T07:04:47.361Z,27.95
2023-05-15T07:05:47.332Z,27.98
2023-05-15T07:06:47.346Z,28.01
2023-05-15T07:07:47.473Z,28.02
2023-05-15T07:08:47.359Z,28.04
2023-05-15T07:09:47.359Z,28.09
2023-05-15T07:10:47.377Z,28.11
2023-05-15T07:11:47.350Z,28.12
2023-05-15T07:12:47.484Z,28.13
2023-05-15T07:13:47.375Z,28.11
2023-05-15T07:14:47.310Z,28.12
2023-05-15T07:15:47.549Z,28.12
2023-05-15T07:16:47.390Z,28.11
2023-05-15T07:17:47.387Z,28.16
2023-05-15T07:18:47.556Z,28.19
2023-05-15T07:19:47.381Z,28.19
2023-05-15T07:20:47.411Z,28.23
2023-05-15T07:21:47.469Z,28.23
2023-05-15T07:22:55.628Z,28.25
2023-05-15T07:23:49.010Z,28.27
2023-05-15T07:24:47.520Z,28.29
2023-05-15T07:25:47.533Z,28.29
2023-05-15T07:26:58.185Z,28.30
2023-05-15T07:27:48.493Z,28.32
2023-05-15T07:28:47.507Z,28.36
2023-05-15T07:29:47.999Z,28.38
2023-05-15T07:30:47.463Z,28.38
2023-05-15T07:31:47.655Z,28.39
2023-05-15T07:32:47.477Z,28.42
2023-05-15T07:33:47.681Z,28.40
2023-05-15T07:34:47.509Z,28.42
2023-05-15T07:35:47.554Z,28.44
2023-05-15T07:36:47.663Z,28.43
2023-05-15T07:37:47.724Z,28.47
2023-05-15T07:38:48.033Z,28.44
2023-05-15T07:39:47.809Z,28.43
2023-05-15T07:40:47.830Z,28.40
2023-05-15T07:41:47.872Z,28.42
2023-05-15T07:42:47.890Z,28.43
2023-05-15T07:43:48.011Z,28.39
2023-05-15T07:44:49.504Z,28.42
2023-05-15T07:45:48.145Z,28.42
2023-05-15T07:46:48.173Z,28.46
2023-05-15T07:47:48.277Z,28.49
2023-05-15T07:48:48.125Z,28.52
2023-05-15T07:49:48.210Z,28.54
2023-05-15T07:50:48.245Z,28.54
2023-05-15T07:51:48.217Z,28.57
2023-05-15T07:52:48.239Z,28.61
2023-05-15T07:53:48.264Z,28.61
2023-05-15T07:54:48.262Z,28.66
2023-05-15T07:55:48.340Z,28.64
2023-05-15T07:56:48.305Z,28.63
2023-05-15T07:57:53.430Z,28.66
2023-05-15T07:58:49.375Z,28.67
2023-05-15T07:59:48.299Z,28.69
2023-05-15T08:00:48.346Z,28.70
2023-05-15T08:01:48.305Z,28.70
2023-05-15T08:02:48.344Z,28.73
2023-05-15T08:03:48.492Z,28.74
2023-05-15T08:04:48.301Z,28.75
2023-05-15T08:05:48.296Z,28.78
2023-05-15T08:06:48.250Z,28.74
2023-05-15T08:07:48.279Z,28.74
2023-05-15T08:08:48.250Z,28.80
2023-05-15T08:09:48.289Z,28.84
2023-05-15T08:10:48.241Z,28.86
2023-05-15T08:11:48.510Z,28.87
2023-05-15T08:12:48.248Z,28.86
2023-05-15T08:13:48.256Z,28.93
2023-05-15T08:14:48.275Z,28.95
2023-05-15T08:15:48.594Z,28.97
2023-05-15T08:16:48.233Z,28.97
2023-05-15T08:17:48.237Z,28.95
2023-05-15T08:18:48.540Z,28.99
2023-05-15T08:19:48.544Z,28.99
2023-05-15T08:20:48.169Z,29.01
2023-05-15T08:21:48.153Z,29.01
2023-05-15T08:22:48.147Z,29.05
2023-05-15T08:23:48.119Z,28.98
2023-05-15T08:24:48.152Z,28.98
2023-05-15T08:25:48.160Z,28.97
2023-05-15T08:26:48.144Z,28.32
2023-05-15T08:27:48.171Z,28.11
2023-05-15T08:28:49.010Z,27.95
2023-05-15T08:29:48.167Z,27.85
2023-05-15T08:30:48.199Z,27.80
2023-05-15T08:31:49.687Z,27.78
2023-05-15T08:32:48.317Z,27.80
2023-05-15T08:33:48.356Z,27.80
2023-05-15T08:34:48.363Z,27.85
2023-05-15T08:35:48.388Z,27.88
2023-05-15T08:36:48.513Z,27.91
2023-05-15T08:37:48.589Z,27.87
2023-05-15T08:38:48.421Z,27.84
2023-05-15T08:39:48.432Z,27.88
2023-05-15T08:40:48.458Z,27.84
2023-05-15T08:41:48.447Z,27.91
2023-05-15T08:42:48.509Z,27.92
2023-05-15T08:43:48.559Z,27.98
2023-05-15T08:44:48.432Z,28.04
2023-05-15T08:45:48.481Z,28.08
2023-05-15T08:46:48.675Z,28.11
2023-05-15T08:47:48.655Z,28.19
2023-05-15T08:48:48.725Z,28.25
2023-05-15T08:49:49.025Z,28.32
2023-05-15T08:50:48.737Z,28.39
2023-05-15T08:51:48.739Z,28.44
2023-05-15T08:52:48.784Z,28.49
2023-05-15T08:53:48.793Z,28.50
2023-05-15T08:54:48.808Z,28.57
2023-05-15T08:55:48.870Z,28.61
2023-05-15T08:56:49.094Z,28.64
2023-05-15T08:57:48.884Z,28.67
2023-05-15T08:58:48.896Z,28.71
2023-05-15T08:59:48.919Z,28.74
2023-05-15T09:00:48.942Z,28.74
2023-05-15T09:01:48.999Z,28.77
2023-05-15T09:02:49.169Z,28.77
2023-05-15T09:03:49.055Z,28.80
2023-05-15T09:04:48.985Z,28.84
2023-05-15T09:05:48.955Z,28.88
2023-05-15T09:06:48.930Z,28.93
2023-05-15T09:07:48.956Z,28.93
2023-05-15T09:08:48.941Z,28.98
2023-05-15T09:09:49.060Z,29.01
2023-05-15T09:10:48.976Z,29.01
2023-05-15T09:11:49.038Z,29.04
2023-05-15T09:12:49.072Z,29.05
2023-05-15T09:13:49.160Z,29.04
2023-05-15T09:14:49.088Z,29.09
2023-05-15T09:15:49.140Z,29.14
2023-05-15T09:16:49.247Z,29.15
2023-05-15T09:17:49.346Z,29.15
2023-05-15T09:18:49.339Z,29.18
2023-05-15T09:19:49.369Z,29.21
2023-05-15T09:20:49.438Z,29.22
2023-05-15T09:21:49.501Z,29.26
2023-05-15T09:22:49.541Z,29.28
2023-05-15T09:23:49.616Z,29.26
2023-05-15T09:24:49.664Z,29.28
2023-05-15T09:25:49.730Z,29.30
2023-05-15T09:26:49.836Z,29.30
2023-05-15T09:27:49.859Z,29.24
2023-05-15T09:28:49.918Z,29.22
2023-05-15T09:29:50.011Z,29.24
2023-05-15T09:30:50.036Z,29.26
2023-05-15T09:31:50.151Z,29.24
2023-05-15T09:32:50.196Z,29.33
2023-05-15T09:33:50.171Z,29.32
2023-05-15T09:34:50.261Z,29.33
2023-05-15T09:35:50.269Z,29.32
2023-05-15T09:36:50.379Z,29.29
2023-05-15T09:37:50.402Z,29.30
2023-05-15T09:38:50.487Z,29.29
2023-05-15T09:39:50.508Z,29.29
2023-05-15T09:40:50.565Z,29.29
2023-05-15T09:41:50.600Z,29.25
2023-05-15T09:42:50.651Z,29.25
2023-05-15T09:43:50.727Z,29.26
2023-05-15T09:44:50.775Z,29.25
2023-05-15T09:45:50.900Z,29.29
2023-05-15T09:46:51.012Z,29.30
2023-05-15T09:47:51.022Z,29.35
2023-05-15T09:48:50.985Z,29.36
2023-05-15T09:49:51.094Z,29.37
2023-05-15T09:50:51.101Z,29.44
2023-05-15T09:51:51.148Z,29.44
2023-05-15T09:52:51.200Z,29.42
2023-05-15T09:53:51.267Z,29.46
2023-05-15T09:54:51.299Z,29.46
2023-05-15T09:55:51.349Z,29.48
2023-05-15T09:56:51.365Z,29.53
2023-05-15T09:57:51.420Z,29.52
2023-05-15T09:58:51.442Z,29.52
2023-05-15T09:59:51.505Z,29.52
2023-05-15T10:00:51.522Z,29.56
2023-05-15T10:01:51.645Z,29.60
2023-05-15T10:02:51.605Z,29.63
2023-05-15T10:03:51.627Z,29.60
2023-05-15T10:04:51.635Z,29.64
2023-05-15T10:05:51.716Z,29.66
2023-05-15T10:06:51.688Z,29.63
2023-05-15T10:07:51.663Z,29.64
2023-05-15T10:08:51.712Z,29.66
2023-05-15T10:09:51.714Z,29.70
2023-05-15T10:10:51.713Z,29.72
2023-05-15T10:11:51.740Z,29.72
2023-05-15T10:12:51.740Z,29.74
2023-05-15T10:13:51.748Z,29.76
2023-05-15T10:14:51.774Z,29.80
2023-05-15T10:15:51.825Z,29.85
2023-05-15T10:16:51.766Z,29.87
2023-05-15T10:17:51.779Z,29.85
2023-05-15T10:18:51.824Z,29.85
2023-05-15T10:20:51.751Z,29.90
2023-05-15T10:21:51.721Z,29.96
2023-05-15T10:22:51.718Z,29.97
2023-05-15T10:23:51.702Z,29.99
2023-05-15T10:24:51.738Z,30.01
2023-05-15T10:25:51.740Z,29.91
2023-05-15T10:26:51.707Z,30.00
2023-05-15T10:27:51.678Z,29.97
2023-05-15T10:28:51.681Z,29.97
2023-05-15T10:29:51.663Z,30.04
2023-05-15T10:30:51.722Z,29.94
2023-05-15T10:31:51.763Z,29.99
2023-05-15T10:32:51.719Z,30.00
2023-05-15T10:33:51.632Z,29.94
2023-05-15T10:34:51.689Z,29.93
2023-05-15T10:35:51.706Z,29.88
2023-05-15T10:36:51.628Z,29.81
2023-05-15T10:37:51.633Z,29.81
2023-05-15T10:38:51.614Z,29.69
2023-05-15T10:39:51.606Z,29.66
2023-05-15T10:40:51.588Z,29.55
2023-05-15T10:41:51.604Z,29.39
2023-05-15T10:42:51.588Z,29.32
2023-05-15T10:43:51.694Z,29.22
2023-05-15T10:44:51.755Z,29.21
2023-05-15T10:45:51.825Z,29.14
2023-05-15T10:46:51.883Z,29.11
2023-05-15T10:47:51.945Z,29.02
2023-05-15T10:48:51.879Z,28.98
2023-05-15T10:49:51.901Z,28.94
2023-05-15T10:50:51.865Z,28.86
2023-05-15T10:51:51.851Z,28.81
2023-05-15T10:52:51.875Z,28.81
2023-05-15T10:53:51.869Z,28.80
2023-05-15T10:54:51.868Z,28.78
2023-05-15T10:55:51.901Z,28.74
2023-05-15T10:56:52.492Z,28.73
2023-05-15T10:57:51.859Z,28.71
2023-05-15T10:58:51.910Z,28.66
2023-05-15T10:59:51.911Z,28.64
2023-05-15T11:00:51.923Z,28.67
2023-05-15T11:01:51.934Z,28.67
2023-05-15T11:02:51.999Z,28.69
2023-05-15T11:03:53.215Z,28.66
2023-05-15T11:04:51.964Z,28.60
2023-05-15T11:05:51.908Z,28.60
2023-05-15T11:06:51.937Z,28.60
2023-05-15T11:07:51.902Z,28.56
2023-05-15T11:08:51.922Z,28.52
2023-05-15T11:09:51.886Z,28.53
2023-05-15T11:10:51.874Z,28.53
2023-05-15T11:11:51.910Z,28.53
2023-05-15T11:12:51.955Z,28.57
2023-05-15T11:13:51.837Z,28.54
2023-05-15T11:14:51.854Z,28.49
2023-05-15T11:15:51.867Z,28.50
2023-05-15T11:16:51.861Z,28.49
2023-05-15T11:17:51.952Z,28.52
2023-05-15T11:18:51.901Z,28.53
2023-05-15T11:19:51.863Z,28.50
2023-05-15T11:20:51.808Z,28.60
2023-05-15T11:21:51.806Z,28.66
2023-05-15T11:22:51.838Z,28.70
2023-05-15T11:23:51.809Z,28.73
2023-05-15T11:24:51.789Z,28.75
2023-05-15T11:25:51.788Z,28.80
2023-05-15T11:26:51.798Z,28.81
2023-05-15T11:27:51.792Z,28.81
2023-05-15T11:28:51.798Z,28.84
2023-05-15T11:29:51.773Z,28.84
2023-05-15T11:30:51.826Z,28.88
2023-05-15T11:31:51.733Z,28.91
2023-05-15T11:32:51.982Z,28.88
2023-05-15T11:33:52.471Z,28.90
2023-05-15T11:34:51.717Z,28.93
2023-05-15T11:35:51.705Z,28.95
2023-05-15T11:36:51.717Z,28.94
2023-05-15T11:37:51.692Z,28.94
2023-05-15T11:38:51.727Z,28.95
2023-05-15T11:39:51.707Z,29.01
2023-05-15T11:40:51.716Z,28.99
2023-05-15T11:41:51.647Z,28.99
2023-05-15T11:42:51.672Z,29.01
2023-05-15T11:43:51.663Z,29.01
2023-05-15T11:44:51.675Z,29.01
2023-05-15T11:45:51.638Z,29.01
2023-05-15T11:46:51.690Z,28.99
2023-05-15T11:47:51.667Z,28.98
2023-05-15T11:48:51.660Z,28.97
2023-05-15T11:49:51.633Z,28.94
2023-05-15T11:50:51.610Z,28.93
2023-05-15T11:51:51.648Z,28.94
2023-05-15T11:52:51.585Z,28.95
2023-05-15T11:53:51.568Z,28.97
2023-05-15T11:54:51.626Z,28.97
2023-05-15T11:55:51.584Z,28.91
2023-05-15T11:56:51.601Z,28.93
2023-05-15T11:57:51.569Z,28.93
2023-05-15T11:58:51.593Z,28.97
2023-05-15T11:59:51.577Z,28.98
2023-05-15T12:00:51.557Z,28.97
2023-05-15T12:01:51.564Z,28.98
2023-05-15T12:02:51.622Z,28.98
2023-05-15T12:03:51.678Z,28.97
2023-05-15T12:04:51.662Z,28.94
2023-05-15T12:05:58.389Z,28.97
2023-05-15T12:06:52.507Z,28.91
2023-05-15T12:07:51.505Z,28.90
2023-05-15T12:08:51.506Z,28.88
2023-05-15T12:09:51.465Z,28.87
2023-05-15T12:10:51.487Z,28.84
2023-05-15T12:11:51.481Z,28.84
2023-05-15T12:12:51.469Z,28.75
2023-05-15T12:13:51.480Z,28.70
2023-05-15T12:14:51.439Z,28.66
2023-05-15T12:15:51.460Z,28.66
2023-05-15T12:16:51.577Z,28.63
2023-05-15T12:17:51.503Z,28.60
2023-05-15T12:18:51.628Z,28.57
2023-05-15T12:19:51.429Z,28.54
2023-05-15T12:20:51.421Z,28.56
2023-05-15T12:21:51.425Z,28.59
2023-05-15T12:22:51.411Z,28.54
2023-05-15T12:24:03.345Z,28.53
2023-05-15T12:24:52.427Z,28.52
2023-05-15T12:25:51.416Z,28.50
2023-05-15T12:26:51.416Z,28.52
2023-05-15T12:27:51.398Z,28.52
2023-05-15T12:28:51.410Z,28.47
2023-05-15T12:29:51.372Z,28.44
2023-05-15T12:30:51.420Z,28.52
2023-05-15T12:31:51.481Z,28.50
2023-05-15T12:32:51.415Z,28.50
2023-05-15T12:33:51.384Z,28.54
2023-05-15T12:34:51.394Z,28.60
2023-05-15T12:35:51.409Z,28.59
2023-05-15T12:36:51.323Z,28.61
2023-05-15T12:37:51.346Z,28.60
2023-05-15T12:38:51.369Z,28.66
2023-05-15T12:39:51.327Z,28.69
2023-05-15T12:40:51.352Z,28.69
2023-05-15T12:41:51.317Z,28.69
2023-05-15T12:42:51.369Z,28.71
2023-05-15T12:43:51.386Z,28.73
2023-05-15T12:44:51.348Z,28.74
2023-05-15T12:45:51.456Z,28.73
2023-05-15T12:46:51.386Z,28.70
2023-05-15T12:47:51.429Z,28.74
2023-05-15T12:48:51.407Z,28.73
2023-05-15T12:49:51.405Z,28.74
2023-05-15T12:50:51.396Z,28.75
2023-05-15T12:51:51.408Z,28.75
2023-05-15T12:52:51.454Z,28.78
2023-05-15T12:53:51.408Z,28.80